Wright Patterson AFB, Ohio
Current Conditions -  °F | °C
As of 2:58 PM on Thursday 30 Oct 2014 (Local Time) from KFFO Reporting Station
Overcast Overcast  
Wind Chill: 50°   Ceiling: 3700
Heat Index: 50°   Visibility: 10mi
Dew Point: 33°   Wind: 2mph
Humidity: 54%   Direction: 350°N
Pressure: 30.1"   Gusts: NA
Location:  39.7649°N, 84.0863°W
Report Text: KFFO 301858Z AUTO 35002KT 10SM OVC037 10/01 A3010 RMK AO2 SLP198 T00980008
Loading
Personal Weather Stations






























Interactive Weather Map
Tropical Storm Tracking
New forecast layout! Learn more

10-Day Weather Forecast

Advertisements
Track Severe Weather on mobile